Time;durP1;ratioP1;P1;durP2;ratioP2;P2;SDS_P1;SDS_P2;PMS_P1;PMS_P2;Temp;Humidity;BMP_temperature;BMP_pressure;BME280_temperature;BME280_humidity;BME280_pressure;Samples;Min_cycle;Max_cycle;Signal;HPM_P1;HPM_P2
2022/01/13 00:01:42;;;;;;;60.87;32.10;;;;;;;;;;4943807;28;20327;-66
2022/01/13 00:04:10;;;;;;;54.10;30.40;;;;;;;;;;4958704;28;20242;-67
2022/01/13 00:06:36;;;;;;;55.37;31.27;;;;;;;;;;4903138;28;20235;-66
2022/01/13 00:09:03;;;;;;;55.27;33.00;;;;;;;;;;4927279;28;20699;-66
2022/01/13 00:11:29;;;;;;;57.53;32.17;;;;;;;;;;4922581;28;20230;-66
2022/01/13 00:14:24;;;;;;;61.13;34.43;;;;;;;;;;4930484;28;20234;-66
2022/01/13 00:22:16;;;;;;;57.83;33.07;;;;;;;;;;4929638;28;20249;-66
2022/01/13 00:24:45;;;;;;;58.13;34.30;;;;;;;;;;4919822;28;21251;-66
2022/01/13 00:27:14;;;;;;;54.80;31.27;;;;;;;;;;4900446;28;20243;-65
2022/01/13 00:29:42;;;;;;;56.23;33.17;;;;;;;;;;4931527;28;20242;-65
2022/01/13 00:32:09;;;;;;;55.80;31.70;;;;;;;;;;4936204;28;20469;-65
2022/01/13 00:34:34;;;;;;;51.50;32.03;;;;;;;;;;4916788;28;20230;-66
2022/01/13 00:37:00;;;;;;;62.63;33.37;;;;;;;;;;4941373;28;20242;-67
2022/01/13 00:39:26;;;;;;;58.33;32.97;;;;;;;;;;4934051;28;20286;-66
2022/01/13 00:41:52;;;;;;;54.80;33.47;;;;;;;;;;4927226;28;20282;-66
2022/01/13 00:44:21;;;;;;;55.03;33.13;;;;;;;;;;4928579;28;20286;-66
2022/01/13 00:46:50;;;;;;;54.17;33.10;;;;;;;;;;4928891;28;20238;-66
2022/01/13 00:49:16;;;;;;;58.73;31.93;;;;;;;;;;4942495;28;20337;-66
2022/01/13 00:51:42;;;;;;;53.23;30.70;;;;;;;;;;4923600;28;20233;-65
2022/01/13 00:54:08;;;;;;;57.93;32.93;;;;;;;;;;4920786;28;20665;-66
2022/01/13 00:56:35;;;;;;;55.63;32.13;;;;;;;;;;4913956;28;21611;-67
2022/01/13 00:59:03;;;;;;;53.10;32.23;;;;;;;;;;4912310;28;20440;-67
2022/01/13 01:01:29;;;;;;;52.23;32.27;;;;;;;;;;4928369;28;20239;-66
2022/01/13 01:03:55;;;;;;;55.77;34.17;;;;;;;;;;4920023;28;20302;-66
2022/01/13 01:06:21;;;;;;;55.27;33.93;;;;;;;;;;4905079;28;20251;-67
2022/01/13 01:08:47;;;;;;;56.97;32.87;;;;;;;;;;4909593;28;20249;-67
2022/01/13 01:11:13;;;;;;;57.77;33.37;;;;;;;;;;4903623;28;20242;-65
2022/01/13 01:13:39;;;;;;;54.50;32.80;;;;;;;;;;4935867;28;20619;-66
2022/01/13 01:16:08;;;;;;;54.93;32.97;;;;;;;;;;4915917;28;20258;-65
2022/01/13 01:23:55;;;;;;;55.27;34.20;;;;;;;;;;4925210;28;20823;-65
2022/01/13 01:26:40;;;;;;;54.10;33.53;;;;;;;;;;4933654;28;20797;-66
2022/01/13 01:31:51;;;;;;;58.07;34.53;;;;;;;;;;4915045;28;21453;-66
2022/01/13 01:36:43;;;;;;;53.97;34.23;;;;;;;;;;4919386;28;20598;-66
2022/01/13 01:39:09;;;;;;;53.87;33.73;;;;;;;;;;4938943;28;20246;-66
2022/01/13 01:41:36;;;;;;;52.83;32.93;;;;;;;;;;4937602;28;20218;-66
2022/01/13 01:44:09;;;;;;;53.17;32.47;;;;;;;;;;4919656;28;20435;-66
2022/01/13 01:46:35;;;;;;;53.30;32.37;;;;;;;;;;4922982;28;20248;-66
2022/01/13 01:49:14;;;;;;;54.13;32.07;;;;;;;;;;4913090;28;20243;-67
2022/01/13 01:51:40;;;;;;;51.63;32.50;;;;;;;;;;4935352;28;20239;-66
2022/01/13 01:54:06;;;;;;;55.97;33.00;;;;;;;;;;4942300;28;20239;-66
2022/01/13 01:56:32;;;;;;;51.93;32.13;;;;;;;;;;4932456;28;20710;-66
2022/01/13 01:59:02;;;;;;;49.20;31.73;;;;;;;;;;4949761;28;20733;-66
2022/01/13 02:01:28;;;;;;;52.77;32.60;;;;;;;;;;4951572;28;20235;-66
2022/01/13 02:03:54;;;;;;;52.83;32.90;;;;;;;;;;4947293;28;20246;-67
2022/01/13 02:06:20;;;;;;;57.47;32.47;;;;;;;;;;4951126;28;20235;-66
2022/01/13 02:08:46;;;;;;;51.07;31.87;;;;;;;;;;4948963;28;20234;-66
2022/01/13 02:11:12;;;;;;;52.17;32.00;;;;;;;;;;4941359;28;20237;-66
2022/01/13 02:13:49;;;;;;;53.43;32.63;;;;;;;;;;4919215;28;20239;-65
2022/01/13 02:19:10;;;;;;;51.33;31.17;;;;;;;;;;4929437;28;20625;-66
2022/01/13 02:21:37;;;;;;;51.70;32.10;;;;;;;;;;4926909;28;20752;-66
2022/01/13 02:24:03;;;;;;;49.27;32.17;;;;;;;;;;4926631;28;20257;-66
2022/01/13 02:26:29;;;;;;;53.27;32.57;;;;;;;;;;4908440;28;20816;-66
2022/01/13 02:28:55;;;;;;;53.60;33.47;;;;;;;;;;4933853;28;20223;-66
2022/01/13 02:31:21;;;;;;;60.10;33.67;;;;;;;;;;4924919;28;20235;-66
2022/01/13 02:33:47;;;;;;;56.60;33.30;;;;;;;;;;4924119;28;20472;-66
2022/01/13 02:36:15;;;;;;;54.43;33.23;;;;;;;;;;4919802;28;20344;-66
2022/01/13 02:38:41;;;;;;;51.80;33.87;;;;;;;;;;4932846;28;20231;-66
2022/01/13 02:41:07;;;;;;;53.67;32.80;;;;;;;;;;4930313;28;20242;-66
2022/01/13 02:43:34;;;;;;;57.37;33.73;;;;;;;;;;4909644;28;20248;-66
2022/01/13 02:48:30;;;;;;;55.07;33.73;;;;;;;;;;4909212;28;20367;-66
2022/01/13 02:50:56;;;;;;;56.77;33.77;;;;;;;;;;4924742;28;23731;-66
2022/01/13 02:53:22;;;;;;;55.13;32.50;;;;;;;;;;4905753;28;20717;-66
2022/01/13 02:55:48;;;;;;;53.87;34.30;;;;;;;;;;4905991;28;20244;-66
2022/01/13 02:58:15;;;;;;;54.73;32.43;;;;;;;;;;4913339;28;20241;-66
2022/01/13 03:00:41;;;;;;;56.43;32.93;;;;;;;;;;4909035;28;20232;-66
2022/01/13 03:03:07;;;;;;;56.70;33.80;;;;;;;;;;4905738;28;20227;-67
2022/01/13 03:05:37;;;;;;;57.93;33.90;;;;;;;;;;4910355;28;20503;-66
2022/01/13 03:08:03;;;;;;;51.57;33.37;;;;;;;;;;4920768;28;20234;-66
2022/01/13 03:10:29;;;;;;;57.37;33.83;;;;;;;;;;4915619;28;20831;-68
2022/01/13 03:12:57;;;;;;;56.20;32.63;;;;;;;;;;4915061;28;20239;-67
2022/01/13 03:15:23;;;;;;;60.90;34.03;;;;;;;;;;4900352;28;20357;-67
2022/01/13 03:17:48;;;;;;;53.57;32.03;;;;;;;;;;4894613;28;20666;-69
2022/01/13 03:20:14;;;;;;;54.37;32.83;;;;;;;;;;4919218;28;20891;-67
2022/01/13 03:22:40;;;;;;;56.50;33.07;;;;;;;;;;4908332;28;20243;-65
2022/01/13 03:25:06;;;;;;;59.27;33.10;;;;;;;;;;4923554;28;20231;-65
2022/01/13 03:27:36;;;;;;;57.50;33.50;;;;;;;;;;4904929;28;20267;-66
2022/01/13 03:30:06;;;;;;;58.87;32.03;;;;;;;;;;4944742;28;20242;-66
2022/01/13 03:32:33;;;;;;;56.83;32.83;;;;;;;;;;4908899;28;20258;-66
2022/01/13 03:34:59;;;;;;;58.67;33.17;;;;;;;;;;4916880;28;20534;-66
2022/01/13 03:37:25;;;;;;;54.07;32.50;;;;;;;;;;4905094;28;20613;-66
2022/01/13 03:39:51;;;;;;;56.23;33.63;;;;;;;;;;4934167;28;20235;-66
2022/01/13 03:42:16;;;;;;;53.63;32.30;;;;;;;;;;4931692;28;20753;-66
2022/01/13 03:44:42;;;;;;;52.77;31.47;;;;;;;;;;4932976;28;20235;-67
2022/01/13 03:47:10;;;;;;;53.00;32.50;;;;;;;;;;4937996;28;20235;-67
2022/01/13 03:49:36;;;;;;;57.57;32.27;;;;;;;;;;4915234;28;20642;-66
2022/01/13 03:52:04;;;;;;;57.67;33.30;;;;;;;;;;4930178;28;20234;-66
2022/01/13 03:54:36;;;;;;;59.10;32.37;;;;;;;;;;4917311;28;20741;-67
2022/01/13 03:57:21;;;;;;;60.27;34.87;;;;;;;;;;4920187;28;20739;-66
2022/01/13 03:59:56;;;;;;;55.00;34.23;;;;;;;;;;4946797;28;20248;-66
2022/01/13 04:02:22;;;;;;;57.73;34.03;;;;;;;;;;4923485;28;20312;-66
2022/01/13 04:04:49;;;;;;;55.70;32.77;;;;;;;;;;4948203;28;20245;-66
2022/01/13 04:07:23;;;;;;;58.93;33.43;;;;;;;;;;4947230;28;20294;-66
2022/01/13 04:09:50;;;;;;;56.03;32.53;;;;;;;;;;4948736;28;20249;-67
2022/01/13 04:12:16;;;;;;;56.63;32.03;;;;;;;;;;4941422;28;20237;-66
2022/01/13 04:17:08;;;;;;;55.20;32.93;;;;;;;;;;4931837;28;20222;-66
2022/01/13 04:19:34;;;;;;;56.30;33.30;;;;;;;;;;4911902;28;20718;-66
2022/01/13 04:22:00;;;;;;;54.50;33.03;;;;;;;;;;4937270;28;20751;-66
2022/01/13 04:24:26;;;;;;;55.20;32.67;;;;;;;;;;4935795;28;20241;-66
2022/01/13 04:26:54;;;;;;;63.67;33.10;;;;;;;;;;4936857;28;20653;-66
2022/01/13 04:29:29;;;;;;;59.13;33.63;;;;;;;;;;4942424;28;20239;-65
2022/01/13 04:31:55;;;;;;;51.07;30.27;;;;;;;;;;4938906;28;20234;-66
2022/01/13 04:34:21;;;;;;;51.07;30.87;;;;;;;;;;4944228;28;20246;-66
2022/01/13 04:36:47;;;;;;;63.37;34.30;;;;;;;;;;4948803;28;20222;-65
2022/01/13 04:39:14;;;;;;;63.03;32.13;;;;;;;;;;4918072;28;20295;-66
2022/01/13 04:41:41;;;;;;;56.47;33.27;;;;;;;;;;4946878;28;20234;-66
2022/01/13 04:44:11;;;;;;;55.63;32.37;;;;;;;;;;4938166;28;20261;-66
2022/01/13 04:46:37;;;;;;;56.00;32.63;;;;;;;;;;4948052;28;20241;-66
2022/01/13 04:49:04;;;;;;;53.53;30.67;;;;;;;;;;4915891;28;20577;-66
2022/01/13 04:51:30;;;;;;;57.30;33.43;;;;;;;;;;4941666;28;20235;-67
2022/01/13 04:53:56;;;;;;;58.07;32.17;;;;;;;;;;4940386;28;21127;-66
2022/01/13 04:56:39;;;;;;;57.30;33.17;;;;;;;;;;4950795;28;20235;-66
2022/01/13 04:59:05;;;;;;;55.93;31.93;;;;;;;;;;4935860;28;20239;-66
2022/01/13 05:01:31;;;;;;;55.30;32.23;;;;;;;;;;4921466;28;20515;-66
2022/01/13 05:03:57;;;;;;;53.63;31.30;;;;;;;;;;4934247;28;20328;-67
2022/01/13 05:06:23;;;;;;;63.17;33.97;;;;;;;;;;4900940;28;20294;-66
2022/01/13 05:08:49;;;;;;;56.77;32.50;;;;;;;;;;4937914;28;20239;-65
2022/01/13 05:11:15;;;;;;;64.83;35.73;;;;;;;;;;4928735;28;20240;-65
2022/01/13 05:13:41;;;;;;;59.37;34.00;;;;;;;;;;4921800;28;20239;-66
2022/01/13 05:16:14;;;;;;;61.80;35.30;;;;;;;;;;4905891;28;20886;-66
2022/01/13 05:18:53;;;;;;;62.60;35.77;;;;;;;;;;4926671;28;20741;-66
2022/01/13 05:21:25;;;;;;;60.03;34.23;;;;;;;;;;4932650;28;20764;-66
2022/01/13 05:23:52;;;;;;;64.93;35.87;;;;;;;;;;4930769;28;20296;-65
2022/01/13 05:26:19;;;;;;;61.37;33.83;;;;;;;;;;4943303;28;20291;-66
2022/01/13 05:28:44;;;;;;;68.10;35.80;;;;;;;;;;4919053;28;20317;-67
2022/01/13 05:31:10;;;;;;;60.80;35.67;;;;;;;;;;4936482;28;20252;-66
2022/01/13 05:33:36;;;;;;;60.67;34.13;;;;;;;;;;4929370;28;20253;-66
2022/01/13 05:36:02;;;;;;;72.33;38.37;;;;;;;;;;4935317;28;20232;-67
2022/01/13 05:38:28;;;;;;;64.10;34.17;;;;;;;;;;4937719;28;20855;-66
2022/01/13 05:40:54;;;;;;;67.23;36.50;;;;;;;;;;4918954;28;20232;-66
2022/01/13 05:43:20;;;;;;;68.90;37.23;;;;;;;;;;4912234;28;20313;-66
2022/01/13 05:45:46;;;;;;;67.60;37.63;;;;;;;;;;4934321;28;20323;-66
2022/01/13 05:48:12;;;;;;;68.67;37.13;;;;;;;;;;4930350;28;20376;-66
2022/01/13 05:50:38;;;;;;;68.13;36.00;;;;;;;;;;4896525;28;20677;-65
2022/01/13 05:53:05;;;;;;;67.30;37.00;;;;;;;;;;4930451;28;20353;-66
2022/01/13 05:55:31;;;;;;;76.50;37.10;;;;;;;;;;4915454;28;21460;-66
2022/01/13 05:57:57;;;;;;;68.10;37.97;;;;;;;;;;4925136;28;20241;-66
2022/01/13 06:00:23;;;;;;;68.43;37.70;;;;;;;;;;4926461;28;20867;-66
2022/01/13 06:02:49;;;;;;;67.60;36.80;;;;;;;;;;4946954;28;21026;-67
2022/01/13 06:05:15;;;;;;;68.90;35.17;;;;;;;;;;4944852;28;20309;-66
2022/01/13 06:07:41;;;;;;;74.73;38.47;;;;;;;;;;4929377;28;20274;-66
2022/01/13 06:10:08;;;;;;;69.43;35.60;;;;;;;;;;4928584;28;20238;-66
2022/01/13 06:12:37;;;;;;;67.83;34.97;;;;;;;;;;4911291;28;20995;-67
2022/01/13 06:15:10;;;;;;;73.07;36.17;;;;;;;;;;4913726;28;20237;-66
2022/01/13 06:17:36;;;;;;;69.43;36.10;;;;;;;;;;4917571;28;20249;-66
2022/01/13 06:20:03;;;;;;;68.77;35.13;;;;;;;;;;4919932;28;20297;-67
2022/01/13 06:22:29;;;;;;;77.43;36.57;;;;;;;;;;4933605;28;20330;-66
2022/01/13 06:24:55;;;;;;;86.30;39.40;;;;;;;;;;4951399;28;20713;-66
2022/01/13 06:27:22;;;;;;;74.97;37.93;;;;;;;;;;4949645;28;20239;-67
2022/01/13 06:29:48;;;;;;;83.13;39.23;;;;;;;;;;4946412;28;20619;-66
2022/01/13 06:32:14;;;;;;;76.30;37.23;;;;;;;;;;4936335;28;20742;-66
2022/01/13 06:34:40;;;;;;;77.13;38.63;;;;;;;;;;4933182;28;20227;-66
2022/01/13 06:37:06;;;;;;;84.23;39.90;;;;;;;;;;4940717;28;20332;-66
2022/01/13 06:39:32;;;;;;;83.27;37.80;;;;;;;;;;4940799;28;20242;-66
2022/01/13 06:41:58;;;;;;;77.90;37.73;;;;;;;;;;4939822;28;20222;-66
2022/01/13 06:44:24;;;;;;;76.20;36.90;;;;;;;;;;4937969;28;20310;-66
2022/01/13 06:46:50;;;;;;;76.13;37.50;;;;;;;;;;4943329;28;20229;-66
2022/01/13 06:49:16;;;;;;;79.03;37.03;;;;;;;;;;4943760;28;20238;-66
2022/01/13 06:51:42;;;;;;;73.10;36.60;;;;;;;;;;4942228;28;20559;-67
2022/01/13 06:54:08;;;;;;;72.53;35.57;;;;;;;;;;4947802;28;20290;-66
2022/01/13 06:56:34;;;;;;;71.10;35.87;;;;;;;;;;4942734;28;20242;-67
2022/01/13 06:59:04;;;;;;;71.00;34.87;;;;;;;;;;4958385;28;20231;-66
2022/01/13 07:01:30;;;;;;;69.07;33.33;;;;;;;;;;4924569;28;20239;-66
2022/01/13 07:03:56;;;;;;;69.53;34.23;;;;;;;;;;4944904;28;20652;-66
2022/01/13 07:06:22;;;;;;;66.83;34.17;;;;;;;;;;4950853;28;20294;-66
2022/01/13 07:08:48;;;;;;;67.63;32.87;;;;;;;;;;4941813;28;20708;-66
2022/01/13 07:11:14;;;;;;;74.37;35.77;;;;;;;;;;4951124;28;20923;-66
2022/01/13 07:13:40;;;;;;;64.03;33.23;;;;;;;;;;4932692;28;20239;-68
2022/01/13 07:16:31;;;;;;;69.90;34.00;;;;;;;;;;4943118;28;20230;-66
2022/01/13 07:18:57;;;;;;;65.13;32.30;;;;;;;;;;4941284;28;20230;-67
2022/01/13 07:21:26;;;;;;;67.13;33.43;;;;;;;;;;4929270;28;20223;-67
2022/01/13 07:23:52;;;;;;;64.83;32.70;;;;;;;;;;4926647;28;20295;-67
2022/01/13 07:26:18;;;;;;;63.93;32.20;;;;;;;;;;4922627;28;20227;-66
2022/01/13 07:28:44;;;;;;;63.50;32.50;;;;;;;;;;4930094;28;20387;-66
2022/01/13 07:31:10;;;;;;;65.40;32.30;;;;;;;;;;4922244;28;20339;-66
2022/01/13 07:33:36;;;;;;;64.90;32.47;;;;;;;;;;4929626;28;20231;-65
2022/01/13 07:36:02;;;;;;;61.87;30.67;;;;;;;;;;4925437;28;20235;-67
2022/01/13 07:38:28;;;;;;;64.60;32.00;;;;;;;;;;4928621;28;20225;-66
2022/01/13 07:40:54;;;;;;;58.93;29.83;;;;;;;;;;4933294;28;20241;-67
2022/01/13 07:43:24;;;;;;;59.53;30.03;;;;;;;;;;4906685;28;20237;-65
2022/01/13 07:45:51;;;;;;;62.70;30.40;;;;;;;;;;4912557;28;20257;-67
2022/01/13 07:48:16;;;;;;;58.10;29.80;;;;;;;;;;4928562;28;20740;-66
2022/01/13 07:50:43;;;;;;;57.90;29.83;;;;;;;;;;4921730;28;20277;-66
2022/01/13 07:53:09;;;;;;;53.23;28.17;;;;;;;;;;4923050;28;20290;-66
2022/01/13 07:55:35;;;;;;;60.20;29.30;;;;;;;;;;4922831;28;20331;-66
2022/01/13 07:58:01;;;;;;;60.27;30.20;;;;;;;;;;4922086;28;20239;-66
2022/01/13 08:00:27;;;;;;;61.93;29.67;;;;;;;;;;4928740;28;20986;-66
2022/01/13 08:02:53;;;;;;;59.27;29.60;;;;;;;;;;4917849;28;20718;-66
2022/01/13 08:05:19;;;;;;;57.53;28.50;;;;;;;;;;4915018;28;20267;-66
2022/01/13 08:07:44;;;;;;;59.40;28.97;;;;;;;;;;4915945;28;20266;-66
2022/01/13 08:10:11;;;;;;;59.63;28.23;;;;;;;;;;4918465;28;20239;-66
2022/01/13 08:12:37;;;;;;;55.03;28.97;;;;;;;;;;4908159;28;20585;-66
2022/01/13 08:15:04;;;;;;;52.67;27.67;;;;;;;;;;4921468;28;20676;-66
2022/01/13 08:20:14;;;;;;;53.97;27.03;;;;;;;;;;4917140;28;20782;-66
2022/01/13 08:22:40;;;;;;;52.37;27.17;;;;;;;;;;4937556;28;20234;-67
2022/01/13 08:25:06;;;;;;;50.30;26.73;;;;;;;;;;4934096;28;20241;-67
2022/01/13 08:27:32;;;;;;;48.53;26.00;;;;;;;;;;4943858;28;20441;-67
2022/01/13 08:29:58;;;;;;;50.63;26.77;;;;;;;;;;4945061;28;20233;-66
2022/01/13 08:32:24;;;;;;;47.07;24.70;;;;;;;;;;4916646;28;20606;-66
2022/01/13 08:34:50;;;;;;;50.43;25.53;;;;;;;;;;4912056;28;20331;-66
2022/01/13 08:37:16;;;;;;;47.63;24.27;;;;;;;;;;4934490;28;20235;-68
2022/01/13 08:39:44;;;;;;;39.50;21.47;;;;;;;;;;4945990;28;21219;-66
2022/01/13 08:42:11;;;;;;;40.97;22.67;;;;;;;;;;4923543;28;21102;-72
2022/01/13 08:44:38;;;;;;;50.50;24.50;;;;;;;;;;4914307;28;20326;-66
2022/01/13 08:47:04;;;;;;;45.47;23.60;;;;;;;;;;4936256;28;20235;-67
2022/01/13 08:49:30;;;;;;;48.40;23.80;;;;;;;;;;4943605;28;20271;-67
2022/01/13 08:51:56;;;;;;;46.93;23.13;;;;;;;;;;4920956;28;20274;-67
2022/01/13 08:54:22;;;;;;;47.50;24.30;;;;;;;;;;4941601;28;20233;-67
2022/01/13 08:56:48;;;;;;;50.77;25.30;;;;;;;;;;4916931;28;20236;-67
2022/01/13 08:59:14;;;;;;;47.20;24.07;;;;;;;;;;4934578;28;20265;-67
2022/01/13 09:01:40;;;;;;;52.67;25.93;;;;;;;;;;4946968;28;20491;-67
2022/01/13 09:04:06;;;;;;;52.20;26.03;;;;;;;;;;4939110;28;20233;-67
2022/01/13 09:06:32;;;;;;;46.60;26.30;;;;;;;;;;4942609;28;20233;-67
2022/01/13 09:08:58;;;;;;;47.83;26.20;;;;;;;;;;4941562;28;20245;-67
2022/01/13 09:11:24;;;;;;;47.93;26.20;;;;;;;;;;4934791;28;20231;-66
2022/01/13 09:13:56;;;;;;;49.77;25.77;;;;;;;;;;4943974;28;20233;-67
2022/01/13 09:16:24;;;;;;;49.83;26.53;;;;;;;;;;4934900;28;20242;-66
2022/01/13 09:21:31;;;;;;;55.23;27.43;;;;;;;;;;4939942;28;20234;-66
2022/01/13 09:23:57;;;;;;;52.03;27.17;;;;;;;;;;4917294;28;20777;-66
2022/01/13 09:26:42;;;;;;;50.03;27.57;;;;;;;;;;4944906;28;20233;-66
2022/01/13 09:29:08;;;;;;;54.47;27.73;;;;;;;;;;4955569;28;20564;-69
2022/01/13 09:31:35;;;;;;;53.27;28.40;;;;;;;;;;4927028;28;20238;-66
2022/01/13 09:34:04;;;;;;;58.20;30.23;;;;;;;;;;4920591;28;20235;-67
2022/01/13 09:36:30;;;;;;;54.70;28.37;;;;;;;;;;4939133;28;20238;-66
2022/01/13 09:38:56;;;;;;;55.93;29.50;;;;;;;;;;4934912;28;20475;-67
2022/01/13 09:41:22;;;;;;;61.17;29.63;;;;;;;;;;4944510;28;20713;-66
2022/01/13 09:43:48;;;;;;;59.80;31.33;;;;;;;;;;4934796;28;20239;-66
2022/01/13 09:46:14;;;;;;;64.00;30.80;;;;;;;;;;4920808;28;20321;-66
2022/01/13 09:48:40;;;;;;;61.77;31.20;;;;;;;;;;4929450;28;20309;-66
2022/01/13 09:51:07;;;;;;;64.87;31.30;;;;;;;;;;4910443;28;20700;-67
2022/01/13 09:53:33;;;;;;;67.40;33.33;;;;;;;;;;4941127;28;20591;-66
2022/01/13 09:55:59;;;;;;;65.07;33.70;;;;;;;;;;4923432;28;20242;-68
2022/01/13 09:58:25;;;;;;;67.37;33.50;;;;;;;;;;4946286;28;20231;-66
2022/01/13 10:00:50;;;;;;;65.90;33.00;;;;;;;;;;4940128;28;20305;-66
2022/01/13 10:03:17;;;;;;;71.73;34.47;;;;;;;;;;4943127;28;20607;-66
2022/01/13 10:05:47;;;;;;;67.70;33.80;;;;;;;;;;4936837;28;20703;-66
2022/01/13 10:08:13;;;;;;;68.10;34.53;;;;;;;;;;4921629;28;20237;-66
2022/01/13 10:10:39;;;;;;;67.67;34.07;;;;;;;;;;4939227;28;20541;-66
2022/01/13 10:13:08;;;;;;;66.57;33.07;;;;;;;;;;4954678;28;20226;-66
2022/01/13 10:18:38;;;;;;;67.00;34.80;;;;;;;;;;4939106;28;20281;-68
2022/01/13 10:21:08;;;;;;;68.67;34.63;;;;;;;;;;4933169;28;20713;-66
2022/01/13 10:23:34;;;;;;;76.00;36.83;;;;;;;;;;4936079;28;20640;-66
2022/01/13 10:26:08;;;;;;;70.67;36.27;;;;;;;;;;4926739;28;20785;-66
2022/01/13 10:28:34;;;;;;;73.83;36.93;;;;;;;;;;4945782;28;20234;-66
2022/01/13 10:31:00;;;;;;;73.37;37.30;;;;;;;;;;4955485;28;20230;-67
2022/01/13 10:33:29;;;;;;;77.60;37.37;;;;;;;;;;4950686;28;20636;-67
2022/01/13 10:36:05;;;;;;;71.27;35.63;;;;;;;;;;4947032;28;20862;-66
2022/01/13 10:38:33;;;;;;;73.67;36.70;;;;;;;;;;4917485;28;20231;-66
2022/01/13 10:41:00;;;;;;;70.73;37.80;;;;;;;;;;4921887;28;20238;-66
2022/01/13 10:43:26;;;;;;;70.77;36.77;;;;;;;;;;4934030;28;20629;-66
2022/01/13 10:45:53;;;;;;;71.50;35.83;;;;;;;;;;4934998;28;20338;-66
2022/01/13 10:48:23;;;;;;;72.63;36.63;;;;;;;;;;4927093;28;20330;-66
2022/01/13 10:50:58;;;;;;;65.73;36.23;;;;;;;;;;4925964;28;20238;-67
2022/01/13 10:53:29;;;;;;;68.33;34.63;;;;;;;;;;4949325;28;20234;-66
2022/01/13 10:55:56;;;;;;;65.63;34.93;;;;;;;;;;4920973;28;20254;-66
2022/01/13 10:58:26;;;;;;;62.87;33.57;;;;;;;;;;4927667;28;20231;-66
2022/01/13 11:00:52;;;;;;;63.40;33.77;;;;;;;;;;4930668;28;20238;-67
2022/01/13 11:03:19;;;;;;;59.77;34.73;;;;;;;;;;4942827;28;20785;-67
2022/01/13 11:05:48;;;;;;;59.57;34.07;;;;;;;;;;4915749;28;20942;-66
2022/01/13 11:08:19;;;;;;;64.20;34.60;;;;;;;;;;4940699;28;20222;-67
2022/01/13 11:10:48;;;;;;;56.93;33.20;;;;;;;;;;4933110;28;20237;-66
2022/01/13 11:13:18;;;;;;;55.53;32.93;;;;;;;;;;4921876;28;20237;-66
2022/01/13 11:15:49;;;;;;;53.47;31.50;;;;;;;;;;4925233;28;20241;-67
2022/01/13 11:18:15;;;;;;;53.87;32.37;;;;;;;;;;4939521;28;20230;-68
2022/01/13 11:20:41;;;;;;;54.53;32.90;;;;;;;;;;4896631;28;20960;-67
2022/01/13 11:23:07;;;;;;;53.53;30.70;;;;;;;;;;4907137;28;20734;-67
2022/01/13 11:25:32;;;;;;;51.40;30.57;;;;;;;;;;4912141;28;20237;-67
2022/01/13 11:27:59;;;;;;;51.43;31.87;;;;;;;;;;4903930;28;20877;-68
2022/01/13 11:30:26;;;;;;;47.50;29.90;;;;;;;;;;4930692;28;20239;-68
2022/01/13 11:32:52;;;;;;;48.20;30.30;;;;;;;;;;4909199;28;20248;-67
2022/01/13 11:35:22;;;;;;;42.63;28.73;;;;;;;;;;4927904;28;20235;-67
2022/01/13 11:37:48;;;;;;;44.57;28.87;;;;;;;;;;4912764;28;20241;-67
2022/01/13 11:40:37;;;;;;;40.77;28.60;;;;;;;;;;4905387;28;20228;-68
2022/01/13 11:43:04;;;;;;;41.77;26.97;;;;;;;;;;4915622;28;20278;-66
2022/01/13 11:45:30;;;;;;;39.77;26.77;;;;;;;;;;4922528;28;20232;-67
2022/01/13 11:48:14;;;;;;;39.70;27.47;;;;;;;;;;4921630;28;20275;-67
2022/01/13 11:50:50;;;;;;;39.70;27.20;;;;;;;;;;4924507;28;20289;-66
2022/01/13 11:53:23;;;;;;;36.60;25.40;;;;;;;;;;4914733;28;20290;-67
2022/01/13 11:55:53;;;;;;;35.03;24.77;;;;;;;;;;4915505;28;20572;-66
2022/01/13 11:58:31;;;;;;;34.60;24.33;;;;;;;;;;4915403;28;20226;-68
2022/01/13 12:00:57;;;;;;;35.50;24.70;;;;;;;;;;4908547;28;20249;-67
2022/01/13 12:03:27;;;;;;;33.57;23.97;;;;;;;;;;4936385;28;20908;-68
2022/01/13 12:05:53;;;;;;;29.03;22.30;;;;;;;;;;4921795;28;20623;-67
2022/01/13 12:08:38;;;;;;;31.30;23.03;;;;;;;;;;4923759;28;20239;-67
2022/01/13 12:11:04;;;;;;;32.50;21.80;;;;;;;;;;4918350;28;20539;-67
2022/01/13 12:13:33;;;;;;;32.30;21.53;;;;;;;;;;4900606;28;20576;-67
2022/01/13 12:15:59;;;;;;;29.57;20.60;;;;;;;;;;4925744;28;20266;-68
2022/01/13 12:18:44;;;;;;;28.47;20.63;;;;;;;;;;4922827;28;20306;-67
2022/01/13 12:21:32;;;;;;;31.13;20.90;;;;;;;;;;4910552;28;20814;-69
2022/01/13 12:24:00;;;;;;;25.30;19.03;;;;;;;;;;4898938;28;20232;-68
2022/01/13 12:26:35;;;;;;;29.27;19.80;;;;;;;;;;4899581;28;20246;-68
2022/01/13 12:29:13;;;;;;;24.90;17.10;;;;;;;;;;4904235;28;20247;-67
2022/01/13 12:31:51;;;;;;;25.60;17.13;;;;;;;;;;4903110;28;20338;-68
2022/01/13 12:34:40;;;;;;;22.63;16.37;;;;;;;;;;4903187;28;20239;-68
2022/01/13 12:37:12;;;;;;;21.33;15.53;;;;;;;;;;4910017;28;20269;-67
2022/01/13 12:39:46;;;;;;;20.20;15.30;;;;;;;;;;4914188;28;20744;-67
2022/01/13 12:42:16;;;;;;;19.73;14.60;;;;;;;;;;4894892;28;20238;-68
2022/01/13 12:47:26;;;;;;;18.10;13.37;;;;;;;;;;4911271;28;20229;-69
2022/01/13 12:49:53;;;;;;;20.63;14.40;;;;;;;;;;4920805;28;20989;-68
2022/01/13 12:52:22;;;;;;;20.90;13.60;;;;;;;;;;4915988;28;20269;-68
2022/01/13 12:54:48;;;;;;;16.23;12.67;;;;;;;;;;4923374;28;20238;-68
2022/01/13 12:57:15;;;;;;;17.13;13.20;;;;;;;;;;4916345;28;20297;-68
2022/01/13 12:59:41;;;;;;;19.57;13.17;;;;;;;;;;4918780;28;20317;-67
2022/01/13 13:02:07;;;;;;;14.53;12.10;;;;;;;;;;4919256;28;20830;-68
2022/01/13 13:04:36;;;;;;;14.97;12.00;;;;;;;;;;4917183;28;20233;-67
2022/01/13 13:07:02;;;;;;;16.10;11.47;;;;;;;;;;4913544;28;20243;-67
2022/01/13 13:09:30;;;;;;;16.83;12.33;;;;;;;;;;4892473;28;24095;-68
2022/01/13 13:11:59;;;;;;;15.70;12.10;;;;;;;;;;4912626;28;20329;-67
2022/01/13 13:14:33;;;;;;;15.97;11.63;;;;;;;;;;4917588;28;20226;-67
2022/01/13 13:16:59;;;;;;;17.13;11.90;;;;;;;;;;4914915;28;20653;-67
2022/01/13 13:19:25;;;;;;;17.90;11.00;;;;;;;;;;4917587;28;20238;-67
2022/01/13 13:21:55;;;;;;;14.03;10.10;;;;;;;;;;4912308;28;20621;-67
2022/01/13 13:24:22;;;;;;;14.43;9.90;;;;;;;;;;4909967;28;20505;-67
2022/01/13 13:26:49;;;;;;;11.67;9.00;;;;;;;;;;4920131;28;20227;-67
2022/01/13 13:29:22;;;;;;;11.67;9.20;;;;;;;;;;4911827;28;20258;-68
2022/01/13 13:31:48;;;;;;;11.43;8.57;;;;;;;;;;4899765;28;21073;-67
2022/01/13 13:34:15;;;;;;;13.17;8.90;;;;;;;;;;4909421;28;20240;-67
2022/01/13 13:36:42;;;;;;;13.17;8.60;;;;;;;;;;4905267;28;20239;-67
2022/01/13 13:39:11;;;;;;;11.73;8.17;;;;;;;;;;4894199;28;20629;-67
2022/01/13 13:41:37;;;;;;;11.27;8.13;;;;;;;;;;4911295;28;20231;-68
2022/01/13 13:44:03;;;;;;;11.07;8.20;;;;;;;;;;4897869;28;20604;-65
2022/01/13 13:46:29;;;;;;;13.10;9.00;;;;;;;;;;4910133;28;20345;-65
2022/01/13 13:48:55;;;;;;;10.33;8.00;;;;;;;;;;4923193;28;20716;-65
2022/01/13 13:51:24;;;;;;;13.83;9.30;;;;;;;;;;4917109;28;20275;-65
2022/01/13 13:54:06;;;;;;;11.70;8.70;;;;;;;;;;4926884;28;20286;-66
2022/01/13 13:56:31;;;;;;;10.37;8.43;;;;;;;;;;4917196;28;20577;-65
2022/01/13 13:58:57;;;;;;;11.27;8.20;;;;;;;;;;4917690;28;20232;-66
2022/01/13 14:01:23;;;;;;;11.90;8.27;;;;;;;;;;4919823;28;20227;-66
2022/01/13 14:03:49;;;;;;;9.83;8.00;;;;;;;;;;4923208;28;20242;-66
2022/01/13 14:06:34;;;;;;;12.33;8.27;;;;;;;;;;4910424;28;20251;-66
2022/01/13 14:09:00;;;;;;;10.27;7.57;;;;;;;;;;4944240;28;20290;-65
2022/01/13 14:11:26;;;;;;;8.70;7.50;;;;;;;;;;4932966;28;20578;-66
2022/01/13 14:14:08;;;;;;;10.47;7.87;;;;;;;;;;4915969;28;20267;-65
2022/01/13 14:16:35;;;;;;;9.47;7.70;;;;;;;;;;4908692;28;20276;-65
2022/01/13 14:19:05;;;;;;;11.03;7.83;;;;;;;;;;4916405;28;20243;-66
2022/01/13 14:21:44;;;;;;;13.70;8.37;;;;;;;;;;4928792;28;20652;-65
2022/01/13 14:24:10;;;;;;;12.20;8.17;;;;;;;;;;4927349;28;20235;-67
2022/01/13 14:26:36;;;;;;;11.97;8.20;;;;;;;;;;4938686;28;20387;-65
2022/01/13 14:29:02;;;;;;;12.40;9.80;;;;;;;;;;4939642;28;20425;-65
2022/01/13 14:31:39;;;;;;;11.53;9.00;;;;;;;;;;4940559;28;20253;-65
2022/01/13 14:34:05;;;;;;;12.93;9.17;;;;;;;;;;4934535;28;22316;-65
2022/01/13 14:36:36;;;;;;;16.37;8.87;;;;;;;;;;4948424;28;20337;-64
2022/01/13 14:39:06;;;;;;;10.90;8.73;;;;;;;;;;4914072;28;20258;-65
2022/01/13 14:41:34;;;;;;;12.07;8.87;;;;;;;;;;4941713;28;20379;-65
2022/01/13 14:44:17;;;;;;;13.47;9.17;;;;;;;;;;4946969;28;20247;-65
2022/01/13 14:46:47;;;;;;;12.37;9.17;;;;;;;;;;4949501;28;20233;-71
2022/01/13 14:49:14;;;;;;;19.73;10.47;;;;;;;;;;4930312;28;20240;-68
2022/01/13 14:51:44;;;;;;;14.07;9.10;;;;;;;;;;4921783;28;20245;-68
2022/01/13 14:54:10;;;;;;;13.17;9.50;;;;;;;;;;4936761;28;20254;-67
2022/01/13 14:56:36;;;;;;;17.10;9.60;;;;;;;;;;4939913;28;20609;-68
2022/01/13 14:59:03;;;;;;;13.57;8.80;;;;;;;;;;4931099;28;20236;-69